sensor_id;sensor_type;location;lat;lon;timestamp;pressure;altitude;pressure_sealevel;temperature;humidity
2549;BME280;1284;53.520;10.248;2022-08-21T00:02:14;100915.25;;;18.28;83.98
2549;BME280;1284;53.520;10.248;2022-08-21T00:04:39;100919.63;;;18.15;84.66
2549;BME280;1284;53.520;10.248;2022-08-21T00:07:05;100927.81;;;18.15;84.45
2549;BME280;1284;53.520;10.248;2022-08-21T00:09:31;100933.22;;;18.25;84.38
2549;BME280;1284;53.520;10.248;2022-08-21T00:11:56;100929.31;;;18.23;83.81
2549;BME280;1284;53.520;10.248;2022-08-21T00:14:22;100922.38;;;18.15;84.45
2549;BME280;1284;53.520;10.248;2022-08-21T00:16:47;100925.91;;;18.08;84.72
2549;BME280;1284;53.520;10.248;2022-08-21T00:19:13;100923.22;;;18.01;85.16
2549;BME280;1284;53.520;10.248;2022-08-21T00:21:39;100925.16;;;18.08;84.94
2549;BME280;1284;53.520;10.248;2022-08-21T00:24:05;100907.25;;;18.03;84.88
2549;BME280;1284;53.520;10.248;2022-08-21T00:26:30;100910.72;;;18.07;85.39
2549;BME280;1284;53.520;10.248;2022-08-21T00:28:56;100908.06;;;17.96;84.92
2549;BME280;1284;53.520;10.248;2022-08-21T00:31:21;100914.63;;;18.02;85.64
2549;BME280;1284;53.520;10.248;2022-08-21T00:33:47;100909.56;;;18.04;85.35
2549;BME280;1284;53.520;10.248;2022-08-21T00:36:13;100905.38;;;17.89;85.47
2549;BME280;1284;53.520;10.248;2022-08-21T00:38:39;100904.56;;;17.96;85.45
2549;BME280;1284;53.520;10.248;2022-08-21T00:41:07;100909.97;;;18.03;84.84
2549;BME280;1284;53.520;10.248;2022-08-21T00:43:35;100910.84;;;17.86;85.33
2549;BME280;1284;53.520;10.248;2022-08-21T00:46:04;100905.38;;;17.89;85.16
2549;BME280;1284;53.520;10.248;2022-08-21T00:48:30;100914.34;;;17.86;85.70
2549;BME280;1284;53.520;10.248;2022-08-21T00:51:00;100904.63;;;17.85;85.19
2549;BME280;1284;53.520;10.248;2022-08-21T00:53:27;100907.38;;;17.78;85.73
2549;BME280;1284;53.520;10.248;2022-08-21T00:55:53;100901.53;;;17.80;85.41
2549;BME280;1284;53.520;10.248;2022-08-21T00:58:20;100897.63;;;17.81;85.64
2549;BME280;1284;53.520;10.248;2022-08-21T01:00:47;100898.06;;;17.76;85.51
2549;BME280;1284;53.520;10.248;2022-08-21T01:03:17;100904.28;;;17.76;85.16
2549;BME280;1284;53.520;10.248;2022-08-21T01:05:43;100908.91;;;17.86;85.39
2549;BME280;1284;53.520;10.248;2022-08-21T01:10:36;100903.09;;;17.84;84.50
2549;BME280;1284;53.520;10.248;2022-08-21T01:13:04;100907.78;;;17.73;84.95
2549;BME280;1284;53.520;10.248;2022-08-21T01:15:36;100908.56;;;17.74;85.32
2549;BME280;1284;53.520;10.248;2022-08-21T01:23:26;100902.75;;;17.68;85.62
2549;BME280;1284;53.520;10.248;2022-08-21T01:25:51;100903.13;;;17.74;85.49
2549;BME280;1284;53.520;10.248;2022-08-21T01:28:17;100909.34;;;17.78;85.35
2549;BME280;1284;53.520;10.248;2022-08-21T01:30:43;100909.72;;;17.76;85.48
2549;BME280;1284;53.520;10.248;2022-08-21T01:33:09;100906.22;;;17.76;84.98
2549;BME280;1284;53.520;10.248;2022-08-21T01:35:36;100902.31;;;17.77;85.49
2549;BME280;1284;53.520;10.248;2022-08-21T01:38:01;100906.19;;;17.83;84.98
2549;BME280;1284;53.520;10.248;2022-08-21T01:40:27;100905.03;;;17.80;85.30
2549;BME280;1284;53.520;10.248;2022-08-21T01:42:52;100903.53;;;17.72;85.46
2549;BME280;1284;53.520;10.248;2022-08-21T01:45:18;100901.19;;;17.71;85.57
2549;BME280;1284;53.520;10.248;2022-08-21T01:47:44;100899.63;;;17.73;85.68
2549;BME280;1284;53.520;10.248;2022-08-21T01:50:12;100899.25;;;17.68;86.06
2549;BME280;1284;53.520;10.248;2022-08-21T01:52:38;100897.34;;;17.65;86.63
2549;BME280;1284;53.520;10.248;2022-08-21T01:55:06;100897.72;;;17.67;86.34
2549;BME280;1284;53.520;10.248;2022-08-21T01:57:32;100899.28;;;17.61;86.54
2549;BME280;1284;53.520;10.248;2022-08-21T01:59:58;100898.47;;;17.67;86.60
2549;BME280;1284;53.520;10.248;2022-08-21T02:02:23;100898.06;;;17.72;86.72
2549;BME280;1284;53.520;10.248;2022-08-21T02:04:49;100887.63;;;17.60;87.14
2549;BME280;1284;53.520;10.248;2022-08-21T02:07:14;100898.56;;;17.53;87.83
2549;BME280;1284;53.520;10.248;2022-08-21T02:09:40;100897.41;;;17.37;89.07
2549;BME280;1284;53.520;10.248;2022-08-21T02:12:08;100893.88;;;17.43;88.50
2549;BME280;1284;53.520;10.248;2022-08-21T02:14:33;100896.63;;;17.43;87.85
2549;BME280;1284;53.520;10.248;2022-08-21T02:16:59;100903.25;;;17.49;88.23
2549;BME280;1284;53.520;10.248;2022-08-21T02:19:25;100897.78;;;17.49;88.46
2549;BME280;1284;53.520;10.248;2022-08-21T02:21:50;100895.84;;;17.53;88.48
2549;BME280;1284;53.520;10.248;2022-08-21T02:24:16;100902.47;;;17.49;88.34
2549;BME280;1284;53.520;10.248;2022-08-21T02:26:41;100898.94;;;17.48;88.40
2549;BME280;1284;53.520;10.248;2022-08-21T02:29:07;100902.44;;;17.52;88.45
2549;BME280;1284;53.520;10.248;2022-08-21T02:31:33;100896.19;;;17.52;88.39
2549;BME280;1284;53.520;10.248;2022-08-21T02:33:59;100897.75;;;17.56;87.74
2549;BME280;1284;53.520;10.248;2022-08-21T02:36:25;100899.72;;;17.52;88.16
2549;BME280;1284;53.520;10.248;2022-08-21T02:38:50;100885.31;;;17.45;87.90
2549;BME280;1284;53.520;10.248;2022-08-21T02:41:18;100889.22;;;17.37;88.60
2549;BME280;1284;53.520;10.248;2022-08-21T02:43:44;100891.22;;;17.26;88.83
2549;BME280;1284;53.520;10.248;2022-08-21T02:46:12;100883.47;;;17.21;89.29
2549;BME280;1284;53.520;10.248;2022-08-21T02:48:37;100883.44;;;17.28;89.14
2549;BME280;1284;53.520;10.248;2022-08-21T02:51:12;100885.38;;;17.31;88.98
2549;BME280;1284;53.520;10.248;2022-08-21T02:53:39;100869.47;;;17.22;89.23
2549;BME280;1284;53.520;10.248;2022-08-21T02:56:08;100875.25;;;17.31;89.73
2549;BME280;1284;53.520;10.248;2022-08-21T02:58:40;100872.56;;;17.28;89.24
2549;BME280;1284;53.520;10.248;2022-08-21T03:01:07;100876.44;;;17.30;89.61
2549;BME280;1284;53.520;10.248;2022-08-21T03:03:35;100872.19;;;17.19;89.90
2549;BME280;1284;53.520;10.248;2022-08-21T03:06:02;100872.63;;;17.03;90.43
2549;BME280;1284;53.520;10.248;2022-08-21T03:08:28;100869.16;;;16.99;91.48
2549;BME280;1284;53.520;10.248;2022-08-21T03:10:54;100865.59;;;17.05;91.03
2549;BME280;1284;53.520;10.248;2022-08-21T03:13:20;100866.00;;;17.04;91.07
2549;BME280;1284;53.520;10.248;2022-08-21T03:15:47;100863.69;;;16.99;90.87
2549;BME280;1284;53.520;10.248;2022-08-21T03:18:13;100868.75;;;16.90;91.62
2549;BME280;1284;53.520;10.248;2022-08-21T03:20:40;100862.94;;;16.88;91.48
2549;BME280;1284;53.520;10.248;2022-08-21T03:23:07;100876.94;;;16.79;91.69
2549;BME280;1284;53.520;10.248;2022-08-21T03:25:34;100866.84;;;16.83;91.86
2549;BME280;1284;53.520;10.248;2022-08-21T03:28:01;100872.66;;;16.85;91.47
2549;BME280;1284;53.520;10.248;2022-08-21T03:30:27;100866.81;;;16.87;90.82
2549;BME280;1284;53.520;10.248;2022-08-21T03:32:53;100871.84;;;16.92;90.61
2549;BME280;1284;53.520;10.248;2022-08-21T03:35:19;100871.50;;;16.93;90.58
2549;BME280;1284;53.520;10.248;2022-08-21T03:37:45;100876.19;;;16.86;89.99
2549;BME280;1284;53.520;10.248;2022-08-21T03:40:13;100877.31;;;16.85;90.45
2549;BME280;1284;53.520;10.248;2022-08-21T03:42:40;100871.50;;;16.69;90.97
2549;BME280;1284;53.520;10.248;2022-08-21T03:45:06;100877.75;;;16.62;91.30
2549;BME280;1284;53.520;10.248;2022-08-21T03:47:31;100875.81;;;16.56;91.58
2549;BME280;1284;53.520;10.248;2022-08-21T03:49:57;100866.09;;;16.55;91.74
2549;BME280;1284;53.520;10.248;2022-08-21T03:52:22;100879.31;;;16.70;91.46
2549;BME280;1284;53.520;10.248;2022-08-21T03:54:48;100869.19;;;16.71;90.79
2549;BME280;1284;53.520;10.248;2022-08-21T03:57:15;100870.72;;;16.75;90.39
2549;BME280;1284;53.520;10.248;2022-08-21T03:59:41;100871.88;;;16.74;89.71
2549;BME280;1284;53.520;10.248;2022-08-21T04:02:08;100872.28;;;16.76;89.24
2549;BME280;1284;53.520;10.248;2022-08-21T04:04:34;100877.72;;;16.69;88.75
2549;BME280;1284;53.520;10.248;2022-08-21T04:07:00;100882.38;;;16.69;89.42
2549;BME280;1284;53.520;10.248;2022-08-21T04:09:26;100878.50;;;16.70;88.63
2549;BME280;1284;53.520;10.248;2022-08-21T04:11:51;100883.56;;;16.68;88.81
2549;BME280;1284;53.520;10.248;2022-08-21T04:14:17;100884.34;;;16.65;89.10
2549;BME280;1284;53.520;10.248;2022-08-21T04:16:43;100887.47;;;16.56;88.60
2549;BME280;1284;53.520;10.248;2022-08-21T04:19:09;100884.75;;;16.53;88.54
2549;BME280;1284;53.520;10.248;2022-08-21T04:21:36;100890.91;;;16.46;88.58
2549;BME280;1284;53.520;10.248;2022-08-21T04:24:03;100882.38;;;16.48;88.81
2549;BME280;1284;53.520;10.248;2022-08-21T04:26:29;100884.75;;;16.53;88.77
2549;BME280;1284;53.520;10.248;2022-08-21T04:28:56;100886.28;;;16.50;88.74
2549;BME280;1284;53.520;10.248;2022-08-21T04:31:23;100887.41;;;16.46;88.56
2549;BME280;1284;53.520;10.248;2022-08-21T04:33:48;100880.44;;;16.45;88.95
2549;BME280;1284;53.520;10.248;2022-08-21T04:36:14;100885.50;;;16.43;89.13
2549;BME280;1284;53.520;10.248;2022-08-21T04:38:39;100889.00;;;16.47;88.98
2549;BME280;1284;53.520;10.248;2022-08-21T04:41:05;100888.19;;;16.46;88.97
2549;BME280;1284;53.520;10.248;2022-08-21T04:43:31;100881.59;;;16.37;89.05
2549;BME280;1284;53.520;10.248;2022-08-21T04:45:57;100887.81;;;16.41;89.51
2549;BME280;1284;53.520;10.248;2022-08-21T04:48:23;100884.69;;;16.42;89.86
2549;BME280;1284;53.520;10.248;2022-08-21T04:55:48;100894.44;;;16.75;89.82
2549;BME280;1284;53.520;10.248;2022-08-21T04:58:17;100897.94;;;16.79;88.70
2549;BME280;1284;53.520;10.248;2022-08-21T05:00:45;100896.75;;;16.83;89.47
2549;BME280;1284;53.520;10.248;2022-08-21T05:03:12;100903.75;;;16.81;90.20
2549;BME280;1284;53.520;10.248;2022-08-21T05:05:40;100899.88;;;16.82;89.85
2549;BME280;1284;53.520;10.248;2022-08-21T05:08:07;100903.34;;;16.93;89.99
2549;BME280;1284;53.520;10.248;2022-08-21T05:10:35;100901.41;;;17.00;89.82
2549;BME280;1284;53.520;10.248;2022-08-21T05:13:01;100905.69;;;17.05;89.43
2549;BME280;1284;53.520;10.248;2022-08-21T05:15:27;100909.94;;;17.02;89.99
2549;BME280;1284;53.520;10.248;2022-08-21T05:17:52;100904.16;;;16.93;89.46
2549;BME280;1284;53.520;10.248;2022-08-21T05:20:18;100913.44;;;16.99;90.19
2549;BME280;1284;53.520;10.248;2022-08-21T05:22:45;100917.72;;;17.04;90.17
2549;BME280;1284;53.520;10.248;2022-08-21T05:25:10;100917.34;;;17.09;90.06
2549;BME280;1284;53.520;10.248;2022-08-21T05:27:37;100914.97;;;17.18;89.92
2549;BME280;1284;53.520;10.248;2022-08-21T05:30:07;100914.53;;;17.27;89.51
2549;BME280;1284;53.520;10.248;2022-08-21T05:32:33;100914.13;;;17.39;89.71
2549;BME280;1284;53.520;10.248;2022-08-21T05:34:59;100912.94;;;17.43;89.44
2549;BME280;1284;53.520;10.248;2022-08-21T05:37:25;100912.19;;;17.50;89.17
2549;BME280;1284;53.520;10.248;2022-08-21T05:39:50;100911.78;;;17.51;89.40
2549;BME280;1284;53.520;10.248;2022-08-21T05:42:16;100918.00;;;17.55;88.97
2549;BME280;1284;53.520;10.248;2022-08-21T05:44:41;100916.44;;;17.61;88.46
2549;BME280;1284;53.520;10.248;2022-08-21T05:47:09;100917.13;;;17.76;88.54
2549;BME280;1284;53.520;10.248;2022-08-21T05:49:36;100921.72;;;17.89;87.82
2549;BME280;1284;53.520;10.248;2022-08-21T05:52:02;100922.03;;;18.06;87.81
2549;BME280;1284;53.520;10.248;2022-08-21T05:54:28;100911.47;;;18.15;87.66
2549;BME280;1284;53.520;10.248;2022-08-21T05:56:53;100912.97;;;18.23;87.51
2549;BME280;1284;53.520;10.248;2022-08-21T05:59:19;100911.38;;;18.29;87.37
2549;BME280;1284;53.520;10.248;2022-08-21T06:01:45;100906.63;;;18.36;87.26
2549;BME280;1284;53.520;10.248;2022-08-21T06:04:11;100913.25;;;18.39;87.91
2549;BME280;1284;53.520;10.248;2022-08-21T06:06:37;100912.84;;;18.44;87.97
2549;BME280;1284;53.520;10.248;2022-08-21T06:09:04;100908.81;;;18.59;87.38
2549;BME280;1284;53.520;10.248;2022-08-21T06:11:30;100916.44;;;18.78;87.20
2549;BME280;1284;53.520;10.248;2022-08-21T06:13:56;100916.34;;;18.88;86.73
2549;BME280;1284;53.520;10.248;2022-08-21T06:16:22;100916.69;;;18.94;87.96
2549;BME280;1284;53.520;10.248;2022-08-21T06:18:48;100921.34;;;18.97;86.89
2549;BME280;1284;53.520;10.248;2022-08-21T06:21:14;100917.16;;;18.85;85.75
2549;BME280;1284;53.520;10.248;2022-08-21T06:23:40;100912.47;;;18.86;84.94
2549;BME280;1284;53.520;10.248;2022-08-21T06:26:07;100914.75;;;18.95;84.85
2549;BME280;1284;53.520;10.248;2022-08-21T06:28:34;100918.56;;;19.04;85.04
2549;BME280;1284;53.520;10.248;2022-08-21T06:31:00;100916.16;;;19.10;84.66
2549;BME280;1284;53.520;10.248;2022-08-21T06:33:25;100915.31;;;19.16;83.96
2549;BME280;1284;53.520;10.248;2022-08-21T06:35:51;100909.47;;;19.14;83.03
2549;BME280;1284;53.520;10.248;2022-08-21T06:38:16;100914.78;;;19.28;83.11
2549;BME280;1284;53.520;10.248;2022-08-21T06:40:42;100915.84;;;19.38;83.27
2549;BME280;1284;53.520;10.248;2022-08-21T06:43:10;100920.44;;;19.48;83.39
2549;BME280;1284;53.520;10.248;2022-08-21T06:45:36;100921.63;;;19.47;82.62
2549;BME280;1284;53.520;10.248;2022-08-21T06:48:02;100927.03;;;19.50;82.35
2549;BME280;1284;53.520;10.248;2022-08-21T06:50:28;100925.53;;;19.46;81.96
2549;BME280;1284;53.520;10.248;2022-08-21T06:53:20;100919.53;;;19.58;82.11
2549;BME280;1284;53.520;10.248;2022-08-21T06:55:46;100920.59;;;19.67;82.52
2549;BME280;1284;53.520;10.248;2022-08-21T06:58:11;100917.38;;;19.76;82.10
2549;BME280;1284;53.520;10.248;2022-08-21T07:00:43;100924.19;;;19.91;81.77
2549;BME280;1284;53.520;10.248;2022-08-21T07:03:20;100921.63;;;20.07;81.03
2549;BME280;1284;53.520;10.248;2022-08-21T07:11:00;100909.41;;;20.65;74.30
2549;BME280;1284;53.520;10.248;2022-08-21T07:13:26;100912.25;;;20.81;73.43
2549;BME280;1284;53.520;10.248;2022-08-21T07:15:52;100903.50;;;21.13;72.59
2549;BME280;1284;53.520;10.248;2022-08-21T07:18:18;100900.19;;;21.41;72.50
2549;BME280;1284;53.520;10.248;2022-08-21T07:20:43;100904.91;;;21.60;71.09
2549;BME280;1284;53.520;10.248;2022-08-21T07:23:14;100905.25;;;21.82;69.37
2549;BME280;1284;53.520;10.248;2022-08-21T07:25:41;100906.97;;;21.92;67.66
2549;BME280;1284;53.520;10.248;2022-08-21T07:28:06;100903.84;;;22.09;68.21
2549;BME280;1284;53.520;10.248;2022-08-21T07:30:32;100903.34;;;22.30;67.12
2549;BME280;1284;53.520;10.248;2022-08-21T07:32:57;100892.28;;;22.50;67.05
2549;BME280;1284;53.520;10.248;2022-08-21T07:35:23;100894.13;;;22.57;64.15
2549;BME280;1284;53.520;10.248;2022-08-21T07:37:49;100890.66;;;22.53;64.44
2549;BME280;1284;53.520;10.248;2022-08-21T07:40:15;100900.72;;;22.59;64.88
2549;BME280;1284;53.520;10.248;2022-08-21T07:42:43;100885.44;;;22.74;64.63
2549;BME280;1284;53.520;10.248;2022-08-21T07:45:10;100891.22;;;22.92;63.28
2549;BME280;1284;53.520;10.248;2022-08-21T07:47:36;100890.31;;;23.11;63.25
2549;BME280;1284;53.520;10.248;2022-08-21T07:50:03;100886.03;;;23.39;62.22
2549;BME280;1284;53.520;10.248;2022-08-21T07:52:28;100884.28;;;23.58;60.39
2549;BME280;1284;53.520;10.248;2022-08-21T07:54:54;100883.22;;;23.68;58.95
2549;BME280;1284;53.520;10.248;2022-08-21T07:57:19;100891.28;;;23.87;58.36
2549;BME280;1284;53.520;10.248;2022-08-21T07:59:45;100887.44;;;23.97;58.49
2549;BME280;1284;53.520;10.248;2022-08-21T08:02:22;100882.38;;;23.96;57.22
2549;BME280;1284;53.520;10.248;2022-08-21T08:04:47;100891.50;;;23.93;56.55
2549;BME280;1284;53.520;10.248;2022-08-21T08:07:13;100885.31;;;23.89;54.54
2549;BME280;1284;53.520;10.248;2022-08-21T08:09:38;100890.63;;;23.96;55.06
2549;BME280;1284;53.520;10.248;2022-08-21T08:14:29;100884.13;;;24.28;55.31
2549;BME280;1284;53.520;10.248;2022-08-21T08:16:55;100881.81;;;24.26;54.62
2549;BME280;1284;53.520;10.248;2022-08-21T08:19:20;100888.50;;;24.50;54.98
2549;BME280;1284;53.520;10.248;2022-08-21T08:21:46;100879.53;;;24.71;53.25
2549;BME280;1284;53.520;10.248;2022-08-21T08:24:11;100881.41;;;24.74;51.72
2549;BME280;1284;53.520;10.248;2022-08-21T08:26:36;100880.06;;;24.66;51.97
2549;BME280;1284;53.520;10.248;2022-08-21T08:29:02;100877.66;;;24.68;52.48
2549;BME280;1284;53.520;10.248;2022-08-21T08:31:28;100879.53;;;24.71;53.83
2549;BME280;1284;53.520;10.248;2022-08-21T08:33:53;100870.34;;;24.87;52.86
2549;BME280;1284;53.520;10.248;2022-08-21T08:36:19;100875.75;;;24.90;53.27
2549;BME280;1284;53.520;10.248;2022-08-21T08:38:46;100876.38;;;24.94;54.53
2549;BME280;1284;53.520;10.248;2022-08-21T08:41:20;100876.09;;;25.36;53.21
2549;BME280;1284;53.520;10.248;2022-08-21T08:43:51;100874.50;;;25.47;53.35
2549;BME280;1284;53.520;10.248;2022-08-21T08:46:25;100880.91;;;25.75;52.67
2549;BME280;1284;53.520;10.248;2022-08-21T08:49:06;100883.25;;;25.85;51.31
2549;BME280;1284;53.520;10.248;2022-08-21T08:51:58;100870.41;;;25.91;51.18
2549;BME280;1284;53.520;10.248;2022-08-21T08:55:26;100872.19;;;26.07;52.03
2549;BME280;1284;53.520;10.248;2022-08-21T08:57:21;100882.63;;;26.12;51.68
2549;BME280;1284;53.520;10.248;2022-08-21T08:59:50;100880.34;;;26.20;51.45
2549;BME280;1284;53.520;10.248;2022-08-21T09:02:18;100870.47;;;26.10;50.57
2549;BME280;1284;53.520;10.248;2022-08-21T09:04:47;100869.19;;;26.02;52.47
2549;BME280;1284;53.520;10.248;2022-08-21T09:07:35;100867.31;;;26.29;52.53
2549;BME280;1284;53.520;10.248;2022-08-21T09:10:07;100860.59;;;26.48;52.65
2549;BME280;1284;53.520;10.248;2022-08-21T09:21:29;100870.59;;;26.64;51.64
2549;BME280;1284;53.520;10.248;2022-08-21T09:24:22;100865.09;;;26.91;51.35
2549;BME280;1284;53.520;10.248;2022-08-21T09:29:25;100848.94;;;27.26;49.27
2549;BME280;1284;53.520;10.248;2022-08-21T09:31:53;100846.63;;;27.24;49.05
2549;BME280;1284;53.520;10.248;2022-08-21T09:34:30;100845.84;;;27.42;50.09
2549;BME280;1284;53.520;10.248;2022-08-21T09:36:57;100850.38;;;27.63;49.97
2549;BME280;1284;53.520;10.248;2022-08-21T09:39:37;100842.63;;;27.85;48.75
2549;BME280;1284;53.520;10.248;2022-08-21T09:42:05;100848.44;;;27.96;48.49
2549;BME280;1284;53.520;10.248;2022-08-21T09:44:34;100843.31;;;28.04;47.47
2549;BME280;1284;53.520;10.248;2022-08-21T09:47:01;100840.16;;;28.20;47.66
2549;BME280;1284;53.520;10.248;2022-08-21T09:49:38;100835.47;;;28.49;46.89
2549;BME280;1284;53.520;10.248;2022-08-21T09:52:18;100837.50;;;28.49;46.21
2549;BME280;1284;53.520;10.248;2022-08-21T09:54:51;100838.13;;;28.20;46.35
2549;BME280;1284;53.520;10.248;2022-08-21T09:57:28;100832.66;;;28.59;47.23
2549;BME280;1284;53.520;10.248;2022-08-21T10:00:20;100833.56;;;28.65;47.56
2549;BME280;1284;53.520;10.248;2022-08-21T10:02:49;100839.72;;;28.98;46.27
2549;BME280;1284;53.520;10.248;2022-08-21T10:05:18;100844.50;;;28.97;46.51
2549;BME280;1284;53.520;10.248;2022-08-21T10:07:44;100837.28;;;29.14;45.16
2549;BME280;1284;53.520;10.248;2022-08-21T10:10:26;100841.75;;;29.12;45.12
2549;BME280;1284;53.520;10.248;2022-08-21T10:13:04;100836.56;;;29.05;45.02
2549;BME280;1284;53.520;10.248;2022-08-21T10:26:31;100828.41;;;28.72;46.45
2549;BME280;1284;53.520;10.248;2022-08-21T10:39:34;100828.16;;;28.61;45.98
2549;BME280;1284;53.520;10.248;2022-08-21T10:47:27;100827.94;;;28.26;46.11
2549;BME280;1284;53.520;10.248;2022-08-21T10:57:50;100827.34;;;28.22;45.37
2549;BME280;1284;53.520;10.248;2022-08-21T11:00:20;100825.75;;;28.30;45.47
2549;BME280;1284;53.520;10.248;2022-08-21T11:02:52;100821.97;;;28.42;45.27
2549;BME280;1284;53.520;10.248;2022-08-21T11:05:27;100826.63;;;28.36;44.78
2549;BME280;1284;53.520;10.248;2022-08-21T11:08:09;100824.09;;;28.47;45.29
2549;BME280;1284;53.520;10.248;2022-08-21T11:10:55;100819.78;;;28.70;45.43
2549;BME280;1284;53.520;10.248;2022-08-21T11:13:56;100833.13;;;29.10;45.55
2549;BME280;1284;53.520;10.248;2022-08-21T11:16:31;100834.78;;;29.46;43.08
2549;BME280;1284;53.520;10.248;2022-08-21T11:22:04;100829.88;;;29.84;42.70
2549;BME280;1284;53.520;10.248;2022-08-21T11:24:49;100831.00;;;29.92;42.74
2549;BME280;1284;53.520;10.248;2022-08-21T11:29:48;100832.84;;;30.15;41.84
2549;BME280;1284;53.520;10.248;2022-08-21T11:40:40;100837.69;;;30.61;39.75
2549;BME280;1284;53.520;10.248;2022-08-21T11:45:48;100842.94;;;30.33;40.75
2549;BME280;1284;53.520;10.248;2022-08-21T11:51:01;100836.13;;;30.34;39.96
2549;BME280;1284;53.520;10.248;2022-08-21T11:53:40;100839.13;;;30.51;40.01
2549;BME280;1284;53.520;10.248;2022-08-21T11:56:16;100840.06;;;30.68;39.28
2549;BME280;1284;53.520;10.248;2022-08-21T11:58:48;100833.03;;;30.72;38.75
2549;BME280;1284;53.520;10.248;2022-08-21T12:01:30;100835.69;;;30.81;38.25
2549;BME280;1284;53.520;10.248;2022-08-21T12:04:07;100831.72;;;30.88;37.92
2549;BME280;1284;53.520;10.248;2022-08-21T12:06:37;100830.31;;;30.78;38.45
2549;BME280;1284;53.520;10.248;2022-08-21T12:09:28;100834.34;;;30.77;38.13
2549;BME280;1284;53.520;10.248;2022-08-21T12:14:47;100830.19;;;30.26;38.93
2549;BME280;1284;53.520;10.248;2022-08-21T12:17:24;100828.78;;;30.16;38.96
2549;BME280;1284;53.520;10.248;2022-08-21T12:20:15;100830.44;;;30.08;39.20
2549;BME280;1284;53.520;10.248;2022-08-21T12:22:52;100827.38;;;30.06;40.02
2549;BME280;1284;53.520;10.248;2022-08-21T12:25:19;100831.28;;;30.14;39.79
2549;BME280;1284;53.520;10.248;2022-08-21T12:27:50;100825.78;;;30.20;39.48
2549;BME280;1284;53.520;10.248;2022-08-21T12:30:32;100825.22;;;30.31;39.39
2549;BME280;1284;53.520;10.248;2022-08-21T12:33:02;100828.84;;;30.37;39.13
2549;BME280;1284;53.520;10.248;2022-08-21T12:38:29;100828.06;;;30.36;39.76
2549;BME280;1284;53.520;10.248;2022-08-21T12:41:04;100829.09;;;30.39;39.69
2549;BME280;1284;53.520;10.248;2022-08-21T12:43:38;100828.28;;;30.18;40.01
2549;BME280;1284;53.520;10.248;2022-08-21T12:46:05;100828.16;;;30.07;40.06
2549;BME280;1284;53.520;10.248;2022-08-21T12:48:57;100830.28;;;29.97;41.13
2549;BME280;1284;53.520;10.248;2022-08-21T12:51:46;100831.22;;;30.09;40.75
2549;BME280;1284;53.520;10.248;2022-08-21T12:54:22;100826.78;;;30.17;40.19
2549;BME280;1284;53.520;10.248;2022-08-21T12:56:59;100830.69;;;30.25;39.97
2549;BME280;1284;53.520;10.248;2022-08-21T12:59:26;100828.63;;;30.25;39.72
2549;BME280;1284;53.520;10.248;2022-08-21T13:01:52;100823.66;;;30.30;39.82
2549;BME280;1284;53.520;10.248;2022-08-21T13:04:24;100830.00;;;30.30;39.83
2549;BME280;1284;53.520;10.248;2022-08-21T13:06:54;100825.84;;;30.25;39.75
2549;BME280;1284;53.520;10.248;2022-08-21T13:09:27;100826.16;;;30.27;39.34
2549;BME280;1284;53.520;10.248;2022-08-21T13:11:53;100827.50;;;29.97;39.54
2549;BME280;1284;53.520;10.248;2022-08-21T13:14:35;100827.06;;;29.70;40.16
2549;BME280;1284;53.520;10.248;2022-08-21T13:17:04;100822.22;;;29.65;40.65
2549;BME280;1284;53.520;10.248;2022-08-21T13:19:31;100819.81;;;29.72;40.50
2549;BME280;1284;53.520;10.248;2022-08-21T13:21:57;100811.97;;;29.56;40.58
2549;BME280;1284;53.520;10.248;2022-08-21T13:24:31;100803.06;;;29.52;41.14
2549;BME280;1284;53.520;10.248;2022-08-21T13:26:57;100803.19;;;29.58;41.62
2549;BME280;1284;53.520;10.248;2022-08-21T13:29:29;100799.50;;;29.66;40.94
2549;BME280;1284;53.520;10.248;2022-08-21T13:32:01;100803.53;;;29.65;39.88
2549;BME280;1284;53.520;10.248;2022-08-21T13:34:35;100805.25;;;29.77;40.07
2549;BME280;1284;53.520;10.248;2022-08-21T13:37:07;100805.63;;;29.70;40.02
2549;BME280;1284;53.520;10.248;2022-08-21T13:39:33;100806.03;;;29.63;40.14
2549;BME280;1284;53.520;10.248;2022-08-21T13:42:02;100808.50;;;29.76;39.83
2549;BME280;1284;53.520;10.248;2022-08-21T13:44:40;100811.00;;;29.74;40.78
2549;BME280;1284;53.520;10.248;2022-08-21T13:47:09;100811.50;;;29.72;40.26
2549;BME280;1284;53.520;10.248;2022-08-21T13:49:39;100803.22;;;29.78;40.43
2549;BME280;1284;53.520;10.248;2022-08-21T13:52:16;100809.84;;;29.80;40.67
2549;BME280;1284;53.520;10.248;2022-08-21T13:54:42;100801.22;;;29.78;41.26
2549;BME280;1284;53.520;10.248;2022-08-21T13:57:25;100801.78;;;29.82;41.17
2549;BME280;1284;53.520;10.248;2022-08-21T13:59:51;100809.56;;;29.78;41.09
2549;BME280;1284;53.520;10.248;2022-08-21T14:02:22;100805.81;;;29.81;41.24
2549;BME280;1284;53.520;10.248;2022-08-21T14:05:00;100801.50;;;29.80;41.10
2549;BME280;1284;53.520;10.248;2022-08-21T14:07:39;100799.50;;;29.81;40.68
2549;BME280;1284;53.520;10.248;2022-08-21T14:15:16;100796.75;;;30.01;39.49
2549;BME280;1284;53.520;10.248;2022-08-21T14:17:43;100811.69;;;30.03;39.87
2549;BME280;1284;53.520;10.248;2022-08-21T14:20:26;100804.78;;;29.99;40.65
2549;BME280;1284;53.520;10.248;2022-08-21T14:22:52;100797.84;;;30.09;40.01
2549;BME280;1284;53.520;10.248;2022-08-21T14:27:52;100797.84;;;30.09;39.26
2549;BME280;1284;53.520;10.248;2022-08-21T14:30:30;100809.78;;;29.95;39.12
2549;BME280;1284;53.520;10.248;2022-08-21T14:32:55;100803.28;;;29.98;39.43
2549;BME280;1284;53.520;10.248;2022-08-21T14:35:21;100803.09;;;29.87;39.52
2549;BME280;1284;53.520;10.248;2022-08-21T14:40:15;100799.38;;;29.90;40.25
2549;BME280;1284;53.520;10.248;2022-08-21T14:42:43;100798.13;;;29.91;39.83
2549;BME280;1284;53.520;10.248;2022-08-21T14:45:23;100795.44;;;29.96;40.09
2549;BME280;1284;53.520;10.248;2022-08-21T14:47:50;100794.09;;;29.92;40.41
2549;BME280;1284;53.520;10.248;2022-08-21T14:50:15;100800.06;;;29.85;39.57
2549;BME280;1284;53.520;10.248;2022-08-21T14:52:41;100792.81;;;29.73;39.01